Time;durP1;ratioP1;P1;durP2;ratioP2;P2;SDS_P1;SDS_P2;PMS_P1;PMS_P2;Temp;Humidity;BMP_temperature;BMP_pressure;BME280_temperature;BME280_humidity;BME280_pressure;Samples;Min_cycle;Max_cycle;Signal;HPM_P1;HPM_P2
2022/02/08 00:00:42;;;;;;;9.88;3.40;;;7.60;77.00;;;;;;5087937;28;20451;-79
2022/02/08 00:03:08;;;;;;;13.95;4.00;;;7.60;77.10;;;;;;5091397;28;20062;-78
2022/02/08 00:05:36;;;;;;;14.30;3.88;;;7.70;77.20;;;;;;5091180;28;20029;-78
2022/02/08 00:08:02;;;;;;;13.88;4.32;;;7.70;77.30;;;;;;5090321;28;20497;-78
2022/02/08 00:10:29;;;;;;;10.25;3.80;;;7.70;77.50;;;;;;5090655;28;20023;-78
2022/02/08 00:12:57;;;;;;;11.30;3.97;;;7.70;77.60;;;;;;5091147;28;20148;-79
2022/02/08 00:15:22;;;;;;;15.70;4.82;;;7.70;77.80;;;;;;5089824;28;20061;-78
2022/02/08 00:17:48;;;;;;;10.43;3.70;;;7.80;78.00;;;;;;5090100;28;20024;-79
2022/02/08 00:20:14;;;;;;;11.70;4.22;;;7.80;78.20;;;;;;5090936;28;20111;-79
2022/02/08 00:22:39;;;;;;;9.10;3.60;;;7.80;78.50;;;;;;5091294;28;20110;-78
2022/02/08 00:25:06;;;;;;;14.05;4.68;;;7.80;78.70;;;;;;5091557;28;20430;-78
2022/02/08 00:27:32;;;;;;;12.48;4.55;;;7.70;79.30;;;;;;5088851;28;20021;-78
2022/02/08 00:29:57;;;;;;;11.38;4.00;;;7.70;79.60;;;;;;5090127;28;20096;-79
2022/02/08 00:32:23;;;;;;;11.73;4.78;;;7.70;79.80;;;;;;5089755;28;20040;-78
2022/02/08 00:34:48;;;;;;;13.57;5.07;;;7.70;80.20;;;;;;5089491;28;20046;-78
2022/02/08 00:37:15;;;;;;;13.15;4.60;;;7.60;80.30;;;;;;5089594;28;20300;-77
2022/02/08 00:39:40;;;;;;;12.55;4.90;;;7.60;80.50;;;;;;5090482;28;20378;-77
2022/02/08 00:42:09;;;;;;;8.52;4.05;;;7.60;80.60;;;;;;5090655;28;20027;-77
2022/02/08 00:44:43;;;;;;;14.07;5.10;;;7.60;80.90;;;;;;5090155;28;20024;-77
2022/02/08 00:49:41;;;;;;;15.90;5.75;;;7.70;81.30;;;;;;5090105;28;20024;-77
2022/02/08 00:52:14;;;;;;;10.75;4.80;;;7.70;81.40;;;;;;5089938;28;20024;-77
2022/02/08 00:54:40;;;;;;;15.32;6.00;;;7.70;81.80;;;;;;5090391;28;20027;-77
2022/02/08 00:57:05;;;;;;;9.70;4.88;;;7.60;82.00;;;;;;5085940;28;20029;-77
2022/02/08 00:59:31;;;;;;;14.45;5.43;;;7.60;82.00;;;;;;5084378;28;20085;-77
2022/02/08 01:01:57;;;;;;;14.10;5.32;;;7.60;82.10;;;;;;5089419;28;20034;-77
2022/02/08 01:04:24;;;;;;;12.60;5.10;;;7.60;82.10;;;;;;5089950;28;20024;-78
2022/02/08 01:06:51;;;;;;;12.73;5.65;;;7.70;82.40;;;;;;5089650;28;20047;-78
2022/02/08 01:09:19;;;;;;;15.65;6.45;;;7.60;82.70;;;;;;5089595;28;20462;-78
2022/02/08 01:11:50;;;;;;;12.98;5.40;;;7.60;83.10;;;;;;5088907;28;20024;-77
2022/02/08 01:14:16;;;;;;;10.93;4.88;;;7.60;83.20;;;;;;5088782;28;20024;-77
2022/02/08 01:16:42;;;;;;;12.43;5.78;;;7.60;83.10;;;;;;5089156;28;20070;-77
2022/02/08 01:19:08;;;;;;;16.35;6.30;;;7.60;84.10;;;;;;5087960;28;20024;-77
2022/02/08 01:21:33;;;;;;;16.30;7.10;;;7.60;83.70;;;;;;5089946;28;20028;-76
2022/02/08 01:24:00;;;;;;;17.02;6.75;;;7.60;84.10;;;;;;5090470;28;20048;-77
2022/02/08 01:26:27;;;;;;;15.13;7.30;;;7.60;84.00;;;;;;5088281;28;20809;-77
2022/02/08 01:29:16;;;;;;;14.02;6.85;;;7.60;84.10;;;;;;5089901;28;20044;-78
2022/02/08 01:31:42;;;;;;;10.00;6.00;;;7.60;84.20;;;;;;5090603;28;20050;-77
2022/02/08 01:36:50;;;;;;;13.35;6.85;;;7.60;85.00;;;;;;5089776;28;20082;-77
2022/02/08 01:39:30;;;;;;;;;;;7.70;84.60;;;;;;5090393;28;20436;-78
2022/02/08 01:44:30;;;;;;;14.05;7.57;;;7.70;85.10;;;;;;5090447;28;20032;-77
2022/02/08 01:47:19;;;;;;;13.32;8.88;;;7.70;85.20;;;;;;5089332;28;20024;-77
2022/02/08 01:50:00;;;;;;;13.07;7.80;;;7.70;85.60;;;;;;5089274;28;20028;-77
2022/02/08 01:52:26;;;;;;;17.27;10.25;;;7.70;85.90;;;;;;5089636;28;20024;-78
2022/02/08 01:54:53;;;;;;;10.77;7.72;;;7.70;86.30;;;;;;5089520;28;20107;-77
2022/02/08 01:57:19;;;;;;;10.50;6.30;;;7.70;86.50;;;;;;5088505;28;20024;-76
2022/02/08 01:59:44;;;;;;;13.00;7.45;;;7.80;86.40;;;;;;5089356;28;20051;-76
2022/02/08 02:02:10;;;;;;;14.57;9.30;;;7.80;86.30;;;;;;5085181;28;20119;-77
2022/02/08 02:04:35;;;;;;;15.07;9.48;;;7.80;86.50;;;;;;5087976;28;20393;-77
2022/02/08 02:07:02;;;;;;;12.52;8.45;;;7.80;86.90;;;;;;5088126;28;20024;-77
2022/02/08 02:09:27;;;;;;;15.90;10.02;;;7.80;87.00;;;;;;5088905;28;20466;-77
2022/02/08 02:11:54;;;;;;;13.70;8.40;;;7.90;87.10;;;;;;5089021;28;20032;-78
2022/02/08 02:14:20;;;;;;;15.02;8.80;;;7.90;87.20;;;;;;5089450;28;20016;-78
2022/02/08 02:19:19;;;;;;;13.13;9.63;;;7.90;87.30;;;;;;5085744;28;20462;-77
2022/02/08 02:21:44;;;;;;;13.00;8.85;;;8.00;87.20;;;;;;5089344;28;20032;-78
2022/02/08 02:24:10;;;;;;;15.85;10.48;;;8.00;87.30;;;;;;5088815;28;20028;-79
2022/02/08 02:26:35;;;;;;;13.85;9.02;;;8.00;87.50;;;;;;5089707;28;20012;-79
2022/02/08 02:29:01;;;;;;;10.05;8.18;;;8.00;87.60;;;;;;5087532;28;20029;-79
2022/02/08 02:31:27;;;;;;;14.38;9.13;;;8.00;87.50;;;;;;5088824;28;20486;-79
2022/02/08 02:33:52;;;;;;;15.48;10.38;;;8.10;87.60;;;;;;5087255;28;20118;-79
2022/02/08 02:36:18;;;;;;;13.07;9.40;;;8.10;87.70;;;;;;5082349;28;20016;-79
2022/02/08 02:38:43;;;;;;;12.57;9.20;;;8.10;87.70;;;;;;5089464;28;20032;-79
2022/02/08 02:41:09;;;;;;;14.02;9.63;;;8.10;88.00;;;;;;5092140;28;20012;-80
2022/02/08 02:43:34;;;;;;;22.13;13.23;;;8.10;88.00;;;;;;5093094;28;20085;-79
2022/02/08 02:46:02;;;;;;;18.92;11.48;;;8.20;87.90;;;;;;5092166;28;20028;-79
2022/02/08 02:48:28;;;;;;;18.95;12.75;;;8.20;88.00;;;;;;5090852;28;20016;-79
2022/02/08 02:50:54;;;;;;;16.63;11.10;;;8.20;88.00;;;;;;5091290;28;20023;-79
2022/02/08 02:53:23;;;;;;;20.08;12.23;;;8.30;88.00;;;;;;5090708;28;20028;-78
2022/02/08 02:55:49;;;;;;;25.58;15.05;;;8.30;87.90;;;;;;5092356;28;20016;-78
2022/02/08 02:58:15;;;;;;;21.58;14.70;;;8.30;88.00;;;;;;5081073;28;20077;-78
2022/02/08 03:00:47;;;;;;;20.65;13.70;;;8.30;88.20;;;;;;5085866;28;20027;-79
2022/02/08 03:19:06;;;;;;;21.33;13.77;;;8.50;88.10;;;;;;5091262;28;20051;-80
2022/02/08 03:21:32;;;;;;;22.50;16.17;;;8.50;88.40;;;;;;5091846;28;20398;-79
2022/02/08 03:23:57;;;;;;;21.38;13.98;;;8.50;88.80;;;;;;5084933;28;20035;-79
2022/02/08 03:26:23;;;;;;;19.08;14.40;;;8.60;88.90;;;;;;5092150;28;20145;-79
2022/02/08 03:28:48;;;;;;;21.48;14.05;;;8.60;88.90;;;;;;5092422;28;20020;-80
2022/02/08 03:31:14;;;;;;;19.27;13.35;;;8.70;88.90;;;;;;5092151;28;20087;-79
2022/02/08 03:33:41;;;;;;;28.45;17.55;;;8.70;88.80;;;;;;5092517;28;20412;-79
2022/02/08 03:36:07;;;;;;;21.83;14.40;;;8.70;88.90;;;;;;5092382;28;20024;-80
2022/02/08 03:38:39;;;;;;;28.02;18.10;;;8.70;88.90;;;;;;5091755;28;20016;-78
2022/02/08 03:41:09;;;;;;;31.52;21.08;;;8.70;88.90;;;;;;5091038;28;20027;-80
2022/02/08 03:43:39;;;;;;;25.00;14.60;;;8.80;88.90;;;;;;5086649;28;20036;-80
2022/02/08 03:46:14;;;;;;;26.45;16.23;;;8.80;88.90;;;;;;5089472;28;20035;-80
2022/02/08 03:48:42;;;;;;;21.45;13.93;;;8.80;88.90;;;;;;5090784;28;20023;-80
2022/02/08 03:51:13;;;;;;;22.65;15.20;;;8.80;88.90;;;;;;5084408;28;20020;-79
2022/02/08 03:53:43;;;;;;;21.73;14.37;;;8.80;88.90;;;;;;5085313;28;20040;-79
2022/02/08 03:56:10;;;;;;;27.83;17.13;;;8.90;89.00;;;;;;5089563;28;20381;-79
2022/02/08 03:58:36;;;;;;;26.25;17.48;;;8.80;89.60;;;;;;5091434;28;20040;-78
2022/02/08 04:04:03;;;;;;;25.42;15.75;;;8.90;89.00;;;;;;5079398;28;20118;-78
2022/02/08 04:06:28;;;;;;;27.73;17.17;;;9.00;88.90;;;;;;5090090;28;20052;-78
2022/02/08 04:08:57;;;;;;;22.83;14.40;;;9.00;88.90;;;;;;5084231;28;20052;-78
2022/02/08 04:11:23;;;;;;;23.58;14.73;;;9.00;89.10;;;;;;5083017;28;20363;-78
2022/02/08 04:13:57;;;;;;;20.10;13.75;;;9.00;89.10;;;;;;5091246;28;20085;-77
2022/02/08 04:16:34;;;;;;;20.90;13.65;;;9.00;89.10;;;;;;5088745;28;20059;-78
2022/02/08 04:33:09;;;;;;;24.17;14.90;;;9.10;89.60;;;;;;5090563;28;20058;-79
2022/02/08 04:35:57;;;;;;;19.50;12.02;;;9.20;89.60;;;;;;5089006;28;20067;-77
2022/02/08 04:38:43;;;;;;;20.50;13.77;;;9.20;89.50;;;;;;5068429;28;20030;-78
2022/02/08 04:41:15;;;;;;;22.08;14.55;;;9.20;89.60;;;;;;5071090;28;20078;-79
2022/02/08 04:43:58;;;;;;;20.13;12.98;;;9.20;89.60;;;;;;5070454;28;20021;-81
2022/02/08 04:46:38;;;;;;;22.60;13.68;;;9.30;89.60;;;;;;5085932;28;20032;-79
2022/02/08 04:49:03;;;;;;;15.93;10.15;;;9.30;89.60;;;;;;5089981;28;20031;-79
2022/02/08 04:51:41;;;;;;;21.00;13.93;;;9.30;89.50;;;;;;5090350;28;20028;-78
2022/02/08 04:54:19;;;;;;;17.52;11.52;;;9.40;89.50;;;;;;5091274;28;20050;-78
2022/02/08 04:59:30;;;;;;;18.67;12.23;;;9.40;90.00;;;;;;5089773;28;20028;-79
2022/02/08 05:45:10;;;;;;;14.45;10.50;;;9.40;89.40;;;;;;5090719;28;20032;-79
2022/02/08 05:47:42;;;;;;;20.80;11.73;;;9.50;90.00;;;;;;5089009;28;20028;-78
2022/02/08 05:55:27;;;;;;;18.05;11.15;;;9.40;89.40;;;;;;5090391;28;20024;-78
2022/02/08 05:57:52;;;;;;;18.88;12.55;;;9.40;89.50;;;;;;5089141;28;20035;-78
2022/02/08 06:00:19;;;;;;;19.25;12.75;;;9.40;89.50;;;;;;5087561;28;20043;-79
2022/02/08 06:02:47;;;;;;;18.38;11.73;;;9.40;89.60;;;;;;5084662;28;20032;-80
2022/02/08 06:05:17;;;;;;;14.68;10.23;;;9.40;89.60;;;;;;5089045;28;20111;-79
2022/02/08 06:07:43;;;;;;;20.67;12.25;;;9.40;89.60;;;;;;5088727;28;20028;-79
2022/02/08 06:10:09;;;;;;;14.75;9.57;;;9.40;89.50;;;;;;5087631;28;20021;-77
2022/02/08 06:12:43;;;;;;;16.08;11.23;;;9.40;89.50;;;;;;5084328;28;20032;-78
2022/02/08 06:15:11;;;;;;;17.33;12.20;;;9.40;89.50;;;;;;5091706;28;20052;-78
2022/02/08 06:17:36;;;;;;;14.52;9.57;;;9.40;89.50;;;;;;5091580;28;20374;-78
2022/02/08 06:20:03;;;;;;;14.32;8.80;;;9.40;89.50;;;;;;5091977;28;20024;-76
2022/02/08 06:22:28;;;;;;;16.63;10.30;;;9.50;89.40;;;;;;5091249;28;20024;-77
2022/02/08 06:24:54;;;;;;;12.18;7.97;;;9.40;89.30;;;;;;5092863;28;20039;-77
2022/02/08 06:27:27;;;;;;;13.55;8.68;;;9.50;89.30;;;;;;5092610;28;20474;-78
2022/02/08 06:29:53;;;;;;;13.48;8.63;;;9.50;89.30;;;;;;5091649;28;20470;-77
2022/02/08 06:32:18;;;;;;;13.55;8.90;;;9.50;89.30;;;;;;5091208;28;20054;-78
2022/02/08 06:34:44;;;;;;;12.00;7.82;;;9.50;89.30;;;;;;5082740;28;20382;-79
2022/02/08 06:37:12;;;;;;;10.73;6.30;;;9.50;89.20;;;;;;5091333;28;20032;-79
2022/02/08 06:39:38;;;;;;;11.68;6.32;;;9.50;89.80;;;;;;5089492;28;20024;-79
2022/02/08 06:42:04;;;;;;;12.30;7.10;;;9.50;89.10;;;;;;5093087;28;20508;-78
2022/02/08 06:44:30;;;;;;;12.85;7.05;;;9.50;89.10;;;;;;5087972;28;20124;-78
2022/02/08 06:46:55;;;;;;;13.88;6.95;;;9.50;89.00;;;;;;5087172;28;20103;-78
2022/02/08 06:49:21;;;;;;;11.00;6.47;;;9.50;89.10;;;;;;5090819;28;20020;-76
2022/02/08 06:51:46;;;;;;;13.57;6.97;;;9.50;89.00;;;;;;5078209;28;20020;-79
2022/02/08 06:54:12;;;;;;;11.20;5.70;;;9.50;89.00;;;;;;5090975;28;20039;-80
2022/02/08 06:56:38;;;;;;;8.85;5.05;;;9.60;89.00;;;;;;5081550;28;20048;-80
2022/02/08 06:59:08;;;;;;;13.40;6.70;;;9.60;89.00;;;;;;5094848;28;20480;-80
2022/02/08 07:01:35;;;;;;;14.20;6.78;;;9.60;88.90;;;;;;5088912;28;20505;-80
2022/02/08 07:04:03;;;;;;;11.05;5.45;;;9.60;88.90;;;;;;5097311;28;20381;-79
2022/02/08 07:06:29;;;;;;;9.57;5.13;;;9.60;88.90;;;;;;5097076;28;20081;-81
2022/02/08 07:08:55;;;;;;;9.63;4.60;;;9.60;88.80;;;;;;5097185;28;20031;-81
2022/02/08 07:11:21;;;;;;;10.68;6.30;;;9.60;88.80;;;;;;5090035;28;20012;-80
2022/02/08 07:13:48;;;;;;;8.55;4.53;;;9.50;88.60;;;;;;5098236;28;20122;-80
2022/02/08 07:16:15;;;;;;;13.13;5.75;;;9.50;88.60;;;;;;5098133;28;20020;-80
2022/02/08 07:18:40;;;;;;;9.70;5.25;;;9.50;88.50;;;;;;5093784;28;20039;-80
2022/02/08 07:21:07;;;;;;;9.88;4.32;;;9.50;88.60;;;;;;5100792;28;20016;-81
2022/02/08 07:23:33;;;;;;;10.00;4.55;;;9.60;88.60;;;;;;5091179;28;20052;-82
2022/02/08 07:25:59;;;;;;;9.07;4.50;;;9.60;88.60;;;;;;5091175;28;20427;-81
2022/02/08 07:28:25;;;;;;;7.85;4.10;;;9.60;88.60;;;;;;5091464;28;20054;-81
2022/02/08 07:30:59;;;;;;;8.82;4.40;;;9.60;88.60;;;;;;5087819;28;20032;-81
2022/02/08 07:33:25;;;;;;;9.15;4.00;;;9.60;88.40;;;;;;5086993;28;20036;-81
2022/02/08 07:36:03;;;;;;;11.05;4.28;;;9.70;88.30;;;;;;5093317;28;20394;-81
2022/02/08 07:38:35;;;;;;;11.02;4.45;;;9.70;88.20;;;;;;5089155;28;20089;-81
2022/02/08 07:43:26;;;;;;;9.73;4.10;;;9.70;88.10;;;;;;5092082;28;20111;-81
2022/02/08 07:45:52;;;;;;;8.65;3.95;;;9.70;88.00;;;;;;5089781;28;20024;-80
2022/02/08 07:48:17;;;;;;;7.28;3.25;;;9.80;88.00;;;;;;5086474;28;20119;-80
2022/02/08 07:50:46;;;;;;;12.60;4.00;;;9.80;87.90;;;;;;5090507;28;20454;-81
2022/02/08 07:53:13;;;;;;;9.10;3.65;;;9.80;87.80;;;;;;5082810;28;20039;-83
2022/02/08 07:55:40;;;;;;;7.10;3.00;;;9.80;87.70;;;;;;5091132;28;20023;-79
2022/02/08 07:58:06;;;;;;;7.47;3.00;;;9.90;87.70;;;;;;5091883;28;20023;-80
2022/02/08 08:00:32;;;;;;;6.47;3.20;;;9.90;87.50;;;;;;5085716;28;20035;-82
2022/02/08 08:02:57;;;;;;;9.98;3.55;;;9.90;87.50;;;;;;5090313;28;20474;-83
2022/02/08 08:05:23;;;;;;;7.68;3.20;;;9.90;87.40;;;;;;5092726;28;20485;-83
2022/02/08 08:07:48;;;;;;;6.95;2.60;;;9.90;87.30;;;;;;5089595;28;20141;-82
2022/02/08 08:10:21;;;;;;;8.95;2.70;;;9.90;87.80;;;;;;5086342;28;20028;-82
2022/02/08 08:12:51;;;;;;;8.77;2.90;;;10.00;87.20;;;;;;5078104;28;20024;-82
2022/02/08 08:17:59;;;;;;;8.63;2.80;;;10.00;87.00;;;;;;5086932;28;20036;-82
2022/02/08 08:20:24;;;;;;;7.35;2.28;;;10.00;86.90;;;;;;5080749;28;20469;-82
2022/02/08 08:22:50;;;;;;;8.35;2.60;;;10.00;86.90;;;;;;5081375;28;20031;-81
2022/02/08 08:25:16;;;;;;;9.07;3.28;;;10.10;86.80;;;;;;5080189;28;20024;-82
2022/02/08 08:27:42;;;;;;;6.95;2.22;;;10.00;86.60;;;;;;5081855;28;20021;-82
2022/02/08 08:30:09;;;;;;;9.73;2.90;;;10.10;86.70;;;;;;5087829;28;20054;-82
2022/02/08 08:32:36;;;;;;;8.45;2.47;;;10.00;86.40;;;;;;5080616;28;20378;-84
2022/02/08 08:35:02;;;;;;;7.68;2.70;;;10.10;86.40;;;;;;5086240;28;20402;-84
2022/02/08 08:37:27;;;;;;;6.70;2.22;;;10.10;86.30;;;;;;5080048;28;20020;-85
2022/02/08 08:39:56;;;;;;;5.47;2.13;;;10.10;86.20;;;;;;5085407;28;20498;-86
2022/02/08 08:42:41;;;;;;;7.30;2.65;;;10.20;86.10;;;;;;5089483;28;20020;-82
2022/02/08 08:48:28;;;;;;;6.82;2.35;;;10.20;86.00;;;;;;5081896;28;20754;-83
2022/02/08 08:53:14;;;;;;;9.27;2.67;;;10.20;85.70;;;;;;5080585;28;20139;-83
2022/02/08 08:55:40;;;;;;;5.28;2.17;;;10.30;85.60;;;;;;5078807;28;20154;-85
2022/02/08 08:58:05;;;;;;;8.00;2.22;;;10.30;85.40;;;;;;5082643;28;20043;-81
2022/02/08 09:00:31;;;;;;;8.80;2.15;;;10.30;85.30;;;;;;5077178;28;20021;-83
2022/02/08 09:02:56;;;;;;;6.28;2.10;;;10.40;85.20;;;;;;5088511;28;20020;-82
2022/02/08 09:05:23;;;;;;;7.82;2.35;;;10.40;85.00;;;;;;5088708;28;20035;-84
2022/02/08 09:07:49;;;;;;;5.22;1.80;;;10.40;84.80;;;;;;5087019;28;20078;-84
2022/02/08 09:10:19;;;;;;;6.45;2.25;;;10.40;84.70;;;;;;5087596;28;20563;-82
2022/02/08 09:15:33;;;;;;;7.35;2.05;;;10.50;84.40;;;;;;5083341;28;20466;-82
2022/02/08 09:18:35;;;;;;;6.68;1.90;;;10.60;84.30;;;;;;5082009;28;20024;-83
2022/02/08 09:24:14;;;;;;;5.85;2.30;;;10.60;83.70;;;;;;5081930;28;20033;-82
2022/02/08 09:29:38;;;;;;;6.22;1.80;;;10.70;83.50;;;;;;5078497;28;20119;-82
2022/02/08 09:32:13;;;;;;;5.03;1.80;;;10.70;83.30;;;;;;5080868;28;20032;-81
2022/02/08 09:34:41;;;;;;;6.85;1.90;;;10.80;83.10;;;;;;5079594;28;20497;-82
2022/02/08 09:37:08;;;;;;;5.85;1.90;;;10.80;83.10;;;;;;5082108;28;20535;-82
2022/02/08 09:39:34;;;;;;;5.47;1.70;;;10.80;83.00;;;;;;5080527;28;20075;-82
2022/02/08 09:42:02;;;;;;;6.95;1.98;;;10.80;82.70;;;;;;5081819;28;20116;-82
2022/02/08 09:44:31;;;;;;;5.78;1.75;;;10.90;82.70;;;;;;5080227;28;20031;-85
2022/02/08 09:46:59;;;;;;;3.55;1.63;;;10.90;82.50;;;;;;5080924;28;20482;-84
2022/02/08 09:49:25;;;;;;;5.68;1.98;;;11.00;82.40;;;;;;5081897;28;20013;-81
2022/02/08 09:51:51;;;;;;;5.22;1.67;;;11.00;82.10;;;;;;5081596;28;21042;-82
2022/02/08 09:54:19;;;;;;;4.95;1.90;;;11.00;82.10;;;;;;5078331;28;20040;-82
2022/02/08 09:56:46;;;;;;;8.23;2.47;;;11.00;81.90;;;;;;5084544;28;20027;-82
2022/02/08 09:59:11;;;;;;;8.65;1.90;;;11.10;81.70;;;;;;5081672;28;20020;-82
2022/02/08 10:01:38;;;;;;;7.72;1.65;;;11.10;81.50;;;;;;5081719;28;20034;-82
2022/02/08 10:04:04;;;;;;;3.55;1.50;;;11.20;81.40;;;;;;5083972;28;20479;-82
2022/02/08 10:06:31;;;;;;;4.88;1.70;;;11.20;81.40;;;;;;5080641;28;20048;-83
2022/02/08 10:09:05;;;;;;;5.65;2.05;;;11.20;81.00;;;;;;5082544;28;20020;-82
2022/02/08 10:11:42;;;;;;;5.47;1.65;;;11.30;81.10;;;;;;5079544;28;20540;-83
2022/02/08 10:20:35;;;;;;;5.22;1.73;;;11.40;80.90;;;;;;5083755;28;20608;-82
2022/02/08 10:22:32;;;;;;;5.80;1.90;;;11.40;80.50;;;;;;5080158;28;20036;-83
2022/02/08 10:25:07;;;;;;;5.28;1.73;;;11.40;80.30;;;;;;5081064;28;20036;-81
2022/02/08 10:27:49;;;;;;;7.00;1.73;;;11.40;80.20;;;;;;5078758;28;20036;-80
2022/02/08 10:30:56;;;;;;;4.30;1.52;;;11.40;80.00;;;;;;5080111;28;20140;-81
2022/02/08 10:39:19;;;;;;;5.10;1.50;;;11.40;79.90;;;;;;5066105;28;20077;-82
2022/02/08 10:41:48;;;;;;;6.80;1.70;;;11.40;79.90;;;;;;5075551;28;20036;-81
2022/02/08 10:44:14;;;;;;;6.47;1.77;;;11.40;79.90;;;;;;5079512;28;20036;-81
2022/02/08 10:46:39;;;;;;;6.03;1.40;;;11.40;79.80;;;;;;5079986;28;20032;-79
2022/02/08 10:49:15;;;;;;;5.63;1.70;;;11.40;79.60;;;;;;5084656;28;20036;-81
2022/02/08 10:57:02;;;;;;;7.05;1.50;;;11.40;79.60;;;;;;5078408;28;20032;-82
2022/02/08 10:59:40;;;;;;;5.00;1.70;;;11.50;79.70;;;;;;5075155;28;20042;-82
2022/02/08 11:02:18;;;;;;;4.57;1.50;;;11.50;79.50;;;;;;5081399;28;20499;-80
2022/02/08 11:04:53;;;;;;;6.95;1.70;;;11.50;79.40;;;;;;5089494;28;20028;-82
2022/02/08 11:10:19;;;;;;;5.20;1.40;;;11.50;79.30;;;;;;5081030;28;20525;-82
2022/02/08 11:13:17;;;;;;;5.70;1.65;;;11.50;79.20;;;;;;5085473;28;20432;-81
2022/02/08 11:21:24;;;;;;;5.85;1.45;;;11.50;78.70;;;;;;5085426;28;20035;-83
2022/02/08 11:24:06;;;;;;;5.32;1.67;;;11.50;78.80;;;;;;5088859;28;20075;-85
2022/02/08 11:26:44;;;;;;;4.57;1.30;;;11.60;78.70;;;;;;5078485;28;20028;-82
2022/02/08 11:29:24;;;;;;;3.90;1.40;;;11.60;78.80;;;;;;5086508;28;20024;-83
2022/02/08 11:32:09;;;;;;;8.00;1.77;;;11.60;78.60;;;;;;5082282;28;20150;-88
2022/02/08 11:55:01;;;;;;;5.50;1.75;;;11.80;77.60;;;;;;5083655;28;20489;-81
2022/02/08 12:12:42;;;;;;;4.72;1.38;;;11.90;77.20;;;;;;5084724;28;20043;-80
2022/02/08 12:51:57;;;;;;;6.22;1.50;;;12.20;75.80;;;;;;5083299;28;20447;-79
2022/02/08 12:54:22;;;;;;;4.10;1.40;;;12.20;75.70;;;;;;5083543;28;20039;-79
2022/02/08 12:59:44;;;;;;;4.07;1.30;;;12.20;75.80;;;;;;5081450;28;20029;-80
2022/02/08 13:14:35;;;;;;;4.47;1.40;;;12.30;75.60;;;;;;5048689;28;20105;-79
2022/02/08 14:03:49;;;;;;;4.72;1.20;;;12.10;76.30;;;;;;5083792;28;20046;-83
2022/02/08 14:11:48;;;;;;;4.70;1.10;;;12.10;75.50;;;;;;5084027;28;20039;-86
2022/02/08 14:19:40;;;;;;;5.47;1.20;;;12.10;75.20;;;;;;5081399;28;20386;-84
2022/02/08 14:25:17;;;;;;;5.65;1.63;;;12.20;75.40;;;;;;5078746;28;20088;-81
2022/02/08 14:30:33;;;;;;;4.50;1.48;;;12.20;75.20;;;;;;5079228;28;20027;-82
2022/02/08 14:33:23;;;;;;;3.47;1.20;;;12.20;75.30;;;;;;5079885;28;20123;-83
2022/02/08 14:36:17;;;;;;;5.45;1.40;;;12.20;75.20;;;;;;5081414;28;20028;-80
2022/02/08 15:00:38;;;;;;;5.17;1.10;;;12.30;75.00;;;;;;5085900;28;20037;-85
2022/02/08 15:06:03;;;;;;;2.90;1.10;;;12.40;74.90;;;;;;5083703;28;20036;-82
2022/02/08 15:08:32;;;;;;;3.70;1.40;;;12.30;74.80;;;;;;5079182;28;20016;-82
2022/02/08 15:11:06;;;;;;;3.45;1.20;;;12.30;74.70;;;;;;5086484;28;20402;-80
2022/02/08 15:13:31;;;;;;;3.95;1.00;;;12.30;74.60;;;;;;5084995;28;20749;-83
2022/02/08 15:18:29;;;;;;;3.25;1.25;;;12.30;74.50;;;;;;5082582;28;20032;-81
2022/02/08 15:20:55;;;;;;;3.05;1.40;;;12.30;74.60;;;;;;5080218;28;20027;-81
2022/02/08 15:23:27;;;;;;;4.53;1.42;;;12.30;74.50;;;;;;5083300;28;20496;-85
2022/02/08 15:25:56;;;;;;;4.28;1.30;;;12.30;74.30;;;;;;5084077;28;20032;-83
2022/02/08 15:28:23;;;;;;;3.95;1.42;;;12.20;74.20;;;;;;5079928;28;20036;-82
2022/02/08 15:30:50;;;;;;;3.97;1.30;;;12.20;74.20;;;;;;5081440;28;20020;-81
2022/02/08 15:33:16;;;;;;;2.72;1.13;;;12.20;74.10;;;;;;5078283;28;20032;-82
2022/02/08 15:35:41;;;;;;;2.78;1.20;;;12.20;74.90;;;;;;5085169;28;20482;-83
2022/02/08 15:38:07;;;;;;;3.40;1.27;;;12.20;74.90;;;;;;5079388;28;20028;-81
2022/02/08 15:40:34;;;;;;;3.95;1.35;;;12.30;74.20;;;;;;5083236;28;20047;-83
2022/02/08 15:43:00;;;;;;;5.70;1.27;;;12.20;74.20;;;;;;5084001;28;20026;-82
2022/02/08 15:45:37;;;;;;;3.40;1.42;;;12.20;74.10;;;;;;5084568;28;20034;-82
2022/02/08 15:48:07;;;;;;;4.55;1.23;;;12.20;74.20;;;;;;5081168;28;20359;-82
2022/02/08 15:50:55;;;;;;;3.90;1.15;;;12.20;74.20;;;;;;5087361;28;20027;-83
2022/02/08 16:00:07;;;;;;;1.67;1.02;;;12.10;74.10;;;;;;5085161;28;20523;-81
2022/02/08 16:07:08;;;;;;;3.60;1.00;;;12.00;73.70;;;;;;5088205;28;20066;-82
2022/02/08 16:14:47;;;;;;;3.35;1.27;;;12.00;73.90;;;;;;5088391;28;20032;-81
2022/02/08 16:17:25;;;;;;;2.90;1.15;;;11.90;73.70;;;;;;5086578;28;20054;-80
2022/02/08 16:20:06;;;;;;;3.28;1.20;;;11.90;73.60;;;;;;5088458;28;20032;-81
2022/02/08 16:27:54;;;;;;;3.55;1.23;;;11.90;73.60;;;;;;5080874;28;20040;-80
2022/02/08 16:31:18;;;;;;;2.35;1.20;;;11.90;73.60;;;;;;5082914;28;20023;-78
2022/02/08 16:48:22;;;;;;;2.90;1.20;;;11.90;73.70;;;;;;5079312;28;20047;-80
2022/02/08 17:00:30;;;;;;;4.60;1.40;;;11.80;74.10;;;;;;5087812;28;20543;-80
2022/02/08 17:03:01;;;;;;;3.83;1.67;;;11.80;74.30;;;;;;5087242;28;20031;-80
2022/02/08 17:05:27;;;;;;;5.45;1.75;;;11.80;74.40;;;;;;5082729;28;20024;-81
2022/02/08 17:07:52;;;;;;;4.53;1.60;;;11.80;74.60;;;;;;5085726;28;20032;-81
2022/02/08 17:10:31;;;;;;;4.38;1.55;;;11.80;74.60;;;;;;5087749;28;20020;-81
2022/02/08 17:13:11;;;;;;;5.18;1.55;;;11.80;74.70;;;;;;5084901;28;20490;-81
2022/02/08 17:34:41;;;;;;;3.13;1.65;;;11.80;75.10;;;;;;5079973;28;20047;-80
2022/02/08 17:47:42;;;;;;;5.35;1.70;;;11.70;75.20;;;;;;5077433;28;20506;-81
2022/02/08 17:50:14;;;;;;;2.50;1.20;;;11.70;75.20;;;;;;5079814;28;20024;-81
2022/02/08 17:52:41;;;;;;;4.63;1.60;;;11.70;75.20;;;;;;5085323;28;20031;-81
2022/02/08 17:55:08;;;;;;;2.95;1.40;;;11.70;75.30;;;;;;5079002;28;20041;-81
2022/02/08 17:57:34;;;;;;;5.15;1.60;;;11.70;75.30;;;;;;5080556;28;20024;-82
2022/02/08 18:00:00;;;;;;;4.18;1.48;;;11.60;75.30;;;;;;5082444;28;20024;-82
2022/02/08 18:02:26;;;;;;;4.07;1.60;;;11.60;75.30;;;;;;5078129;28;20075;-82
2022/02/08 18:04:53;;;;;;;2.97;1.58;;;11.60;75.30;;;;;;5078370;28;20081;-83
2022/02/08 18:07:23;;;;;;;4.78;1.73;;;11.50;75.20;;;;;;5081863;28;20020;-82
2022/02/08 18:09:49;;;;;;;4.10;1.40;;;11.50;75.20;;;;;;5082836;28;20438;-82
2022/02/08 18:12:16;;;;;;;2.40;1.30;;;11.50;75.20;;;;;;5084819;28;20020;-84
2022/02/08 18:14:47;;;;;;;4.38;1.65;;;11.50;75.20;;;;;;5083289;28;20017;-83
2022/02/08 18:17:18;;;;;;;3.70;1.63;;;11.50;75.20;;;;;;5082270;28;20068;-83
2022/02/08 18:19:50;;;;;;;2.60;1.33;;;11.50;75.10;;;;;;5085440;28;20062;-83
2022/02/08 18:24:57;;;;;;;3.38;1.55;;;11.50;75.10;;;;;;5085013;28;20044;-83
2022/02/08 18:27:34;;;;;;;3.05;1.30;;;11.40;75.10;;;;;;5078921;28;20646;-82
2022/02/08 18:57:42;;;;;;;5.38;2.25;;;11.20;75.70;;;;;;5087034;28;20891;-80
2022/02/08 19:08:47;;;;;;;4.10;2.15;;;11.20;76.20;;;;;;5089370;28;20028;-80
2022/02/08 19:16:36;;;;;;;4.93;2.90;;;11.20;76.50;;;;;;5094549;28;20055;-78
2022/02/08 19:23:52;;;;;;;4.03;2.42;;;11.10;76.70;;;;;;5094930;28;20028;-80
2022/02/08 19:26:21;;;;;;;4.78;2.53;;;11.10;76.80;;;;;;5093263;28;20023;-79
2022/02/08 19:28:49;;;;;;;5.25;2.60;;;11.10;76.90;;;;;;5091789;28;20016;-79
2022/02/08 19:31:19;;;;;;;4.28;2.60;;;11.10;76.90;;;;;;5092895;28;20016;-81
2022/02/08 19:33:46;;;;;;;3.97;2.30;;;11.10;77.00;;;;;;5091478;28;20562;-79
2022/02/08 19:36:11;;;;;;;4.35;2.85;;;11.10;77.10;;;;;;5093314;28;20026;-80
2022/02/08 19:38:41;;;;;;;4.53;2.80;;;11.00;77.10;;;;;;5089795;28;20032;-80
2022/02/08 19:41:06;;;;;;;6.30;2.80;;;11.00;77.10;;;;;;5082458;28;20663;-80
2022/02/08 19:43:33;;;;;;;5.68;3.00;;;11.00;77.20;;;;;;5083459;28;20032;-80
2022/02/08 19:45:58;;;;;;;3.97;2.85;;;11.00;77.20;;;;;;5078235;28;20690;-80
2022/02/08 19:48:24;;;;;;;4.35;2.63;;;11.10;77.30;;;;;;5082894;28;20028;-80
2022/02/08 19:50:50;;;;;;;5.03;2.75;;;11.10;77.20;;;;;;5084050;28;20104;-80
2022/02/08 19:53:15;;;;;;;5.47;2.72;;;11.10;77.20;;;;;;5084868;28;20047;-80
2022/02/08 19:58:21;;;;;;;4.18;2.83;;;11.10;77.10;;;;;;5081025;28;20028;-79
2022/02/08 20:00:57;;;;;;;4.47;2.72;;;11.20;77.10;;;;;;5083948;28;20012;-79
2022/02/08 20:03:25;;;;;;;2.50;2.30;;;11.10;77.10;;;;;;5083733;28;20048;-79
2022/02/08 20:05:50;;;;;;;4.00;2.60;;;11.20;77.20;;;;;;5085838;28;20020;-80
2022/02/08 20:08:16;;;;;;;3.85;2.60;;;11.20;77.20;;;;;;5082507;28;20355;-80
2022/02/08 20:10:41;;;;;;;4.25;3.13;;;11.20;77.10;;;;;;5084157;28;20594;-81
2022/02/08 20:13:07;;;;;;;6.45;3.20;;;11.20;77.20;;;;;;5080142;28;20093;-79
2022/02/08 20:15:33;;;;;;;4.18;2.88;;;11.20;77.20;;;;;;5085724;28;20530;-80
2022/02/08 20:18:03;;;;;;;4.43;3.08;;;11.20;77.20;;;;;;5082217;28;20052;-80
2022/02/08 20:20:28;;;;;;;5.13;3.35;;;11.20;77.30;;;;;;5084774;28;20012;-80